Time;durP1;ratioP1;P1;durP2;ratioP2;P2;SDS_P1;SDS_P2;PMS_P1;PMS_P2;Temp;Humidity;BMP_temperature;BMP_pressure;BME280_temperature;BME280_humidity;BME280_pressure;Samples;Min_cycle;Max_cycle;Signal;HPM_P1;HPM_P2
2022/12/28 00:02:21;;;;;;;11.13;5.70;;;6.00;95.00;;;;;;5111229;27;20497;-90
2022/12/28 00:04:48;;;;;;;11.30;5.60;;;6.00;95.20;;;;;;5110013;27;20412;-89
2022/12/28 00:07:15;;;;;;;14.67;6.23;;;6.00;94.90;;;;;;5094462;27;21300;-88
2022/12/28 00:09:40;;;;;;;10.65;6.03;;;6.00;95.00;;;;;;5110366;27;20407;-88
2022/12/28 00:12:06;;;;;;;12.20;5.20;;;6.00;95.00;;;;;;5111523;27;20395;-89
2022/12/28 00:14:31;;;;;;;11.27;5.40;;;6.20;95.00;;;;;;5093590;27;20464;-90
2022/12/28 00:16:57;;;;;;;12.82;6.65;;;6.20;95.10;;;;;;5094512;27;20398;-89
2022/12/28 00:19:23;;;;;;;13.43;6.47;;;6.10;95.00;;;;;;5111214;27;20395;-89
2022/12/28 00:21:51;;;;;;;12.57;6.43;;;6.10;95.10;;;;;;5110589;27;20800;-88
2022/12/28 00:24:20;;;;;;;12.98;6.53;;;6.00;95.00;;;;;;5110700;27;20428;-87
2022/12/28 00:26:46;;;;;;;11.73;6.85;;;6.00;94.90;;;;;;5092867;27;20399;-89
2022/12/28 00:29:11;;;;;;;12.60;7.43;;;6.30;95.00;;;;;;5093870;27;20769;-87
2022/12/28 00:31:37;;;;;;;11.20;6.93;;;6.10;95.00;;;;;;5109621;27;20402;-86
2022/12/28 00:34:03;;;;;;;13.23;7.90;;;6.10;94.90;;;;;;5111102;27;20431;-91
2022/12/28 00:36:30;;;;;;;14.50;7.97;;;6.10;94.90;;;;;;5110879;27;20414;-90
2022/12/28 00:38:55;;;;;;;13.87;8.00;;;6.10;94.90;;;;;;5093453;27;20925;-91
2022/12/28 00:41:21;;;;;;;14.13;7.70;;;6.10;94.80;;;;;;5110828;27;20407;-91
2022/12/28 00:43:47;;;;;;;10.40;6.60;;;6.30;94.80;;;;;;5109555;27;20776;-88
2022/12/28 00:46:13;;;;;;;13.02;7.53;;;6.10;94.70;;;;;;5110219;28;20414;-89
2022/12/28 00:48:39;;;;;;;10.57;7.07;;;6.10;94.70;;;;;;5108976;27;20403;-89
2022/12/28 00:51:11;;;;;;;9.60;6.88;;;6.10;94.60;;;;;;5129576;27;20406;-87
2022/12/28 00:53:37;;;;;;;12.73;7.57;;;6.20;94.60;;;;;;5109330;27;20454;-89
2022/12/28 00:56:17;;;;;;;12.52;7.85;;;6.40;94.50;;;;;;5110448;27;20411;-89
2022/12/28 00:58:43;;;;;;;13.38;7.28;;;6.20;94.50;;;;;;5109585;27;20422;-89
2022/12/28 01:01:18;;;;;;;11.93;7.10;;;6.20;94.40;;;;;;5109193;27;20546;-88
2022/12/28 01:03:43;;;;;;;10.35;7.07;;;6.20;94.40;;;;;;5110166;27;20819;-87
2022/12/28 01:06:12;;;;;;;13.60;7.85;;;6.20;94.30;;;;;;5091881;27;20406;-89
2022/12/28 01:08:39;;;;;;;11.80;8.20;;;6.20;94.30;;;;;;5110895;27;20386;-89
2022/12/28 01:11:22;;;;;;;13.45;7.57;;;6.30;94.30;;;;;;5109771;27;20460;-88
2022/12/28 01:13:49;;;;;;;12.07;8.25;;;6.30;94.30;;;;;;5109185;27;20458;-89
2022/12/28 01:16:18;;;;;;;10.13;7.15;;;6.30;94.40;;;;;;5110166;27;20435;-89
2022/12/28 01:18:45;;;;;;;11.05;7.78;;;6.30;94.30;;;;;;5109165;27;20455;-87
2022/12/28 01:21:16;;;;;;;13.17;8.50;;;6.30;94.30;;;;;;5093202;27;20403;-88
2022/12/28 01:23:47;;;;;;;14.05;7.85;;;6.30;94.30;;;;;;5091435;27;20515;-88
2022/12/28 01:26:14;;;;;;;12.82;8.50;;;6.30;94.30;;;;;;5109503;27;20761;-88
2022/12/28 01:28:41;;;;;;;13.40;8.65;;;6.40;94.40;;;;;;5109081;27;20469;-90
2022/12/28 01:31:09;;;;;;;12.87;8.97;;;6.30;94.40;;;;;;5092458;27;20768;-89
2022/12/28 01:33:34;;;;;;;15.95;10.23;;;6.30;94.50;;;;;;5109825;27;20415;-88
2022/12/28 01:36:21;;;;;;;14.10;10.40;;;6.40;94.80;;;;;;5109111;27;20462;-90
2022/12/28 01:38:51;;;;;;;15.57;10.50;;;6.30;94.80;;;;;;5109482;27;20487;-88
2022/12/28 01:41:18;;;;;;;14.40;9.95;;;6.30;94.80;;;;;;5092102;27;20401;-87
2022/12/28 01:43:46;;;;;;;16.38;11.07;;;6.30;94.80;;;;;;5109241;27;20472;-88
2022/12/28 01:46:16;;;;;;;16.23;10.32;;;6.30;94.90;;;;;;5109104;27;20413;-87
2022/12/28 01:48:51;;;;;;;17.73;14.20;;;6.30;94.90;;;;;;5091103;27;20405;-88
2022/12/28 01:51:19;;;;;;;18.08;14.20;;;6.30;95.10;;;;;;5092618;27;20395;-90
2022/12/28 01:53:47;;;;;;;19.67;14.17;;;6.50;95.20;;;;;;5092086;27;21023;-89
2022/12/28 01:56:13;;;;;;;17.70;13.07;;;6.30;95.30;;;;;;5092510;27;20434;-87
2022/12/28 01:58:39;;;;;;;21.33;14.27;;;6.30;95.40;;;;;;5108096;27;21071;-89
2022/12/28 02:01:05;;;;;;;18.38;14.35;;;6.30;95.50;;;;;;5109084;27;20861;-91
2022/12/28 02:03:32;;;;;;;20.90;15.27;;;6.30;95.50;;;;;;5091742;27;20425;-89
2022/12/28 02:06:01;;;;;;;22.10;16.03;;;6.30;95.80;;;;;;5108610;27;20406;-88
2022/12/28 02:08:36;;;;;;;21.10;15.68;;;6.30;95.60;;;;;;5092162;27;20403;-89
2022/12/28 02:11:03;;;;;;;21.13;14.07;;;6.30;95.70;;;;;;5108407;27;20410;-88
2022/12/28 02:13:28;;;;;;;18.27;13.17;;;6.30;95.70;;;;;;5092408;27;20403;-89
2022/12/28 02:15:54;;;;;;;20.60;14.63;;;6.30;95.70;;;;;;5091491;27;20490;-87
2022/12/28 02:18:22;;;;;;;19.85;14.85;;;6.20;95.70;;;;;;5108002;28;20469;-89
2022/12/28 02:21:22;;;;;;;18.73;14.90;;;6.40;95.80;;;;;;5090574;28;20494;-87
2022/12/28 02:24:06;;;;;;;17.43;13.33;;;6.40;95.80;;;;;;5089848;27;20479;-89
2022/12/28 02:27:00;;;;;;;21.17;16.75;;;6.40;95.90;;;;;;5091517;27;20410;-89
2022/12/28 02:29:50;;;;;;;21.73;15.90;;;6.50;96.00;;;;;;5091692;28;20442;-88
2022/12/28 02:32:21;;;;;;;22.38;16.70;;;6.50;96.00;;;;;;5107843;28;20413;-90
2022/12/28 02:34:53;;;;;;;20.33;15.23;;;6.50;96.00;;;;;;5091809;28;20485;-88
2022/12/28 02:37:31;;;;;;;21.33;16.27;;;6.50;96.00;;;;;;5107601;28;20446;-88
2022/12/28 02:40:15;;;;;;;21.80;16.85;;;6.50;96.00;;;;;;5108450;28;20406;-88
2022/12/28 02:42:41;;;;;;;21.92;15.93;;;6.50;96.00;;;;;;5108634;28;20444;-87
2022/12/28 02:51:07;;;;;;;22.30;17.33;;;6.50;96.00;;;;;;5109248;28;20406;-91
2022/12/28 02:53:41;;;;;;;25.83;19.13;;;6.60;96.10;;;;;;5091538;28;20810;-90
2022/12/28 02:56:24;;;;;;;23.45;18.38;;;6.60;96.40;;;;;;5092002;28;20407;-90
2022/12/28 02:59:12;;;;;;;20.73;17.00;;;6.60;96.40;;;;;;5090871;28;20411;-90
2022/12/28 03:01:59;;;;;;;20.52;17.63;;;6.60;96.20;;;;;;5108508;28;20465;-90
2022/12/28 03:05:02;;;;;;;21.70;18.13;;;6.60;96.20;;;;;;5092441;28;20505;-86
2022/12/28 03:10:34;;;;;;;20.90;18.00;;;6.70;96.30;;;;;;5110212;27;20441;-90
2022/12/28 03:16:06;;;;;;;21.23;18.90;;;6.90;96.30;;;;;;5111880;27;20402;-91
2022/12/28 03:32:29;;;;;;;24.77;20.67;;;6.80;96.30;;;;;;5112143;27;20913;-91
2022/12/28 03:34:55;;;;;;;26.45;20.90;;;6.80;96.30;;;;;;5095631;27;20420;-90
2022/12/28 03:37:31;;;;;;;24.23;19.98;;;6.80;96.30;;;;;;5111263;27;20423;-92
2022/12/28 03:40:08;;;;;;;21.88;18.23;;;6.80;96.30;;;;;;5095442;27;20422;-92
2022/12/28 03:45:50;;;;;;;21.37;18.30;;;6.90;96.40;;;;;;5110933;27;20406;-91
2022/12/28 03:48:16;;;;;;;21.48;18.58;;;6.90;96.40;;;;;;5112496;27;20403;-90
2022/12/28 03:50:45;;;;;;;22.53;19.80;;;6.90;96.40;;;;;;5093693;27;20402;-91
2022/12/28 03:53:11;;;;;;;22.30;19.25;;;6.90;96.40;;;;;;5095842;27;20422;-90
2022/12/28 03:55:37;;;;;;;21.55;18.27;;;6.90;96.40;;;;;;5094599;27;20923;-91
2022/12/28 03:58:04;;;;;;;29.73;24.42;;;6.90;96.50;;;;;;5094462;27;20533;-89
2022/12/28 04:00:29;;;;;;;29.02;23.02;;;6.90;99.90;;;;;;5094943;27;20477;-92
2022/12/28 04:02:55;;;;;;;28.17;23.05;;;6.90;99.90;;;;;;5094163;27;20481;-91
2022/12/28 04:05:21;;;;;;;23.88;20.60;;;7.10;99.90;;;;;;5095472;27;20403;-92
2022/12/28 04:07:46;;;;;;;23.23;20.77;;;7.00;99.90;;;;;;5093362;27;20394;-89
2022/12/28 04:10:12;;;;;;;27.25;23.50;;;7.00;99.90;;;;;;5095871;27;20438;-91
2022/12/28 04:12:37;;;;;;;25.02;21.38;;;7.00;99.90;;;;;;5093880;27;20441;-90
2022/12/28 04:15:04;;;;;;;27.60;23.97;;;7.40;99.90;;;;;;5111416;27;21059;-92
2022/12/28 04:17:29;;;;;;;21.73;19.02;;;7.10;97.70;;;;;;5110703;27;20898;-92
2022/12/28 04:19:55;;;;;;;26.00;22.10;;;7.10;97.10;;;;;;5094219;27;20954;-91
2022/12/28 04:22:21;;;;;;;20.33;16.93;;;7.10;97.10;;;;;;5111696;27;20913;-89
2022/12/28 04:24:46;;;;;;;28.60;22.45;;;7.10;97.00;;;;;;5093470;27;20394;-90
2022/12/28 04:27:12;;;;;;;30.40;24.70;;;7.10;97.00;;;;;;5112131;27;20399;-90
2022/12/28 04:29:37;;;;;;;32.38;26.17;;;7.00;96.90;;;;;;5110801;27;20450;-91
2022/12/28 04:32:03;;;;;;;28.52;24.55;;;7.40;97.00;;;;;;5094695;27;21081;-90
2022/12/28 04:34:29;;;;;;;28.17;23.10;;;7.20;96.90;;;;;;5110277;27;20407;-91
2022/12/28 04:36:54;;;;;;;27.17;23.93;;;7.20;96.90;;;;;;5111109;27;20399;-89
2022/12/28 04:39:20;;;;;;;30.15;24.25;;;7.30;96.90;;;;;;5094074;27;20395;-90
2022/12/28 04:41:46;;;;;;;34.70;27.40;;;7.30;96.90;;;;;;5110339;27;20485;-92
2022/12/28 04:44:12;;;;;;;29.83;25.73;;;7.30;96.90;;;;;;5094424;27;20399;-92
2022/12/28 04:46:37;;;;;;;29.80;25.10;;;7.30;96.90;;;;;;5109842;27;20483;-90
2022/12/28 04:49:03;;;;;;;28.73;23.10;;;7.40;96.90;;;;;;5094392;27;20414;-90
2022/12/28 04:51:30;;;;;;;30.23;24.58;;;7.40;96.90;;;;;;5093291;27;20402;-88
2022/12/28 04:53:56;;;;;;;33.90;26.15;;;7.40;96.90;;;;;;5094167;27;20814;-92
2022/12/28 04:56:23;;;;;;;32.70;26.38;;;7.40;96.90;;;;;;5110687;27;20421;-91
2022/12/28 04:58:56;;;;;;;27.25;23.65;;;7.50;96.80;;;;;;5093552;27;20843;-91
2022/12/28 05:01:22;;;;;;;32.20;26.70;;;7.50;96.80;;;;;;5094157;27;20402;-91
2022/12/28 05:03:49;;;;;;;33.88;27.10;;;7.50;96.80;;;;;;5092794;27;20406;-91
2022/12/28 05:06:20;;;;;;;37.42;28.35;;;7.50;96.80;;;;;;5094500;27;20448;-90
2022/12/28 05:08:47;;;;;;;31.80;25.25;;;7.90;96.90;;;;;;5109951;27;20413;-95
2022/12/28 05:11:21;;;;;;;35.30;28.23;;;7.50;96.80;;;;;;5093848;27;20407;-91
2022/12/28 05:13:47;;;;;;;39.20;30.35;;;7.60;96.90;;;;;;5093375;27;20403;-90
2022/12/28 05:16:15;;;;;;;32.67;26.55;;;7.60;96.90;;;;;;5092737;27;20485;-91
2022/12/28 05:18:41;;;;;;;39.37;30.33;;;7.60;96.90;;;;;;5093635;27;20793;-89
2022/12/28 05:21:17;;;;;;;34.93;27.10;;;7.70;96.90;;;;;;5109224;27;20411;-92
2022/12/28 05:23:43;;;;;;;36.58;28.50;;;7.70;96.90;;;;;;5093841;27;20433;-90
2022/12/28 05:26:11;;;;;;;37.65;28.90;;;7.70;97.00;;;;;;5109287;27;20422;-92
2022/12/28 05:28:37;;;;;;;36.00;29.17;;;7.80;96.90;;;;;;5093041;27;20414;-91
2022/12/28 05:31:05;;;;;;;35.22;27.48;;;7.80;96.90;;;;;;5093353;27;20395;-93
2022/12/28 05:33:33;;;;;;;33.05;25.05;;;7.70;96.90;;;;;;5108706;27;20403;-89
2022/12/28 05:36:11;;;;;;;30.63;24.60;;;7.80;96.90;;;;;;5093557;27;20391;-94
2022/12/28 05:38:37;;;;;;;30.50;23.83;;;7.90;97.00;;;;;;5091274;27;20434;-92
2022/12/28 05:41:07;;;;;;;34.88;26.75;;;7.80;96.90;;;;;;5093796;27;20886;-92
2022/12/28 05:43:34;;;;;;;30.08;24.13;;;7.90;96.90;;;;;;5109100;27;20409;-94
2022/12/28 05:46:04;;;;;;;23.77;19.75;;;7.90;96.90;;;;;;5092949;27;20739;-92
2022/12/28 05:48:32;;;;;;;26.38;22.23;;;8.00;96.80;;;;;;5093294;27;20394;-91
2022/12/28 05:51:00;;;;;;;28.00;23.88;;;8.00;96.80;;;;;;5112204;27;21151;-91
2022/12/28 05:53:28;;;;;;;24.20;21.53;;;8.00;96.70;;;;;;5113700;27;20400;-93
2022/12/28 05:56:03;;;;;;;25.15;21.45;;;8.00;96.70;;;;;;5129313;27;20436;-92
2022/12/28 05:58:29;;;;;;;26.27;22.38;;;8.00;96.60;;;;;;5113599;27;20504;-90
2022/12/28 06:01:12;;;;;;;26.85;22.38;;;8.10;96.60;;;;;;5129617;27;20389;-90
2022/12/28 06:03:38;;;;;;;22.50;20.10;;;8.20;96.60;;;;;;5112841;27;20397;-92
2022/12/28 06:06:15;;;;;;;28.27;22.97;;;8.00;96.50;;;;;;5130273;27;20465;-92
2022/12/28 06:08:42;;;;;;;22.38;20.00;;;8.40;96.60;;;;;;5129146;27;20411;-90
2022/12/28 06:11:11;;;;;;;20.70;18.48;;;8.10;96.50;;;;;;5130438;27;20840;-91
2022/12/28 06:13:37;;;;;;;26.27;21.90;;;8.10;96.50;;;;;;5112039;27;20760;-89
2022/12/28 06:16:08;;;;;;;25.08;21.02;;;8.10;96.50;;;;;;5113342;27;20393;-89
2022/12/28 06:18:34;;;;;;;23.63;20.75;;;8.10;96.50;;;;;;5112236;27;20482;-89
2022/12/28 06:21:05;;;;;;;20.30;18.20;;;8.10;96.50;;;;;;5129189;27;20439;-89
2022/12/28 06:23:31;;;;;;;25.58;20.85;;;8.10;96.50;;;;;;5113049;27;20763;-91
2022/12/28 06:26:02;;;;;;;20.88;17.45;;;8.10;96.50;;;;;;5128960;27;20403;-91
2022/12/28 06:28:28;;;;;;;22.20;19.15;;;8.10;96.50;;;;;;5130968;27;20769;-90
2022/12/28 06:31:02;;;;;;;22.02;19.60;;;8.20;96.50;;;;;;5111841;27;20404;-91
2022/12/28 06:33:28;;;;;;;23.17;19.23;;;8.20;96.50;;;;;;5112532;27;20425;-91
2022/12/28 06:35:54;;;;;;;25.05;21.10;;;8.20;96.50;;;;;;5112382;27;20476;-90
2022/12/28 06:38:19;;;;;;;22.30;19.88;;;8.20;96.50;;;;;;5112372;27;20590;-92
2022/12/28 06:40:45;;;;;;;23.55;18.60;;;8.20;96.50;;;;;;5129653;27;20394;-90
2022/12/28 06:43:10;;;;;;;21.70;19.07;;;8.20;96.50;;;;;;5111760;27;20793;-92
2022/12/28 06:45:36;;;;;;;20.08;17.70;;;8.20;96.40;;;;;;5131863;27;20413;-91
2022/12/28 06:48:02;;;;;;;19.80;17.00;;;8.40;96.50;;;;;;5115716;27;20404;-89
2022/12/28 06:50:27;;;;;;;18.02;15.73;;;8.30;96.40;;;;;;5117491;27;20397;-90
2022/12/28 06:52:53;;;;;;;18.27;16.17;;;8.30;96.40;;;;;;5116011;27;20452;-91
2022/12/28 06:55:18;;;;;;;22.03;18.67;;;8.30;96.40;;;;;;5133512;27;20940;-93
2022/12/28 06:57:44;;;;;;;20.40;17.88;;;8.30;96.40;;;;;;5116307;27;20424;-90
2022/12/28 07:00:10;;;;;;;18.67;16.23;;;8.30;96.50;;;;;;5116025;27;20930;-91
2022/12/28 07:02:36;;;;;;;20.25;17.40;;;8.30;96.50;;;;;;5115878;27;20431;-90
2022/12/28 07:05:02;;;;;;;23.23;18.42;;;8.30;96.50;;;;;;5133250;27;20382;-91
2022/12/28 07:07:28;;;;;;;24.77;19.33;;;8.30;96.50;;;;;;5134186;27;20424;-93
2022/12/28 07:09:53;;;;;;;26.30;19.97;;;8.30;96.60;;;;;;5115855;27;20413;-90
2022/12/28 07:12:19;;;;;;;28.70;22.15;;;8.30;96.60;;;;;;5116618;27;20404;-91
2022/12/28 07:14:44;;;;;;;28.30;20.00;;;8.40;96.60;;;;;;5133164;27;20385;-92
2022/12/28 07:17:10;;;;;;;32.30;22.80;;;8.40;96.70;;;;;;5115805;27;20828;-91
2022/12/28 07:19:36;;;;;;;27.13;21.23;;;8.40;96.70;;;;;;5115819;27;20477;-91
2022/12/28 07:22:02;;;;;;;28.80;21.17;;;8.40;96.70;;;;;;5115472;27;20487;-91
2022/12/28 07:24:28;;;;;;;29.77;21.25;;;8.70;96.80;;;;;;5116155;27;20397;-89
2022/12/28 07:26:54;;;;;;;27.35;21.27;;;8.60;96.70;;;;;;5124156;27;20414;-88
2022/12/28 07:29:19;;;;;;;30.83;22.00;;;8.60;96.70;;;;;;5096201;27;20406;-91
2022/12/28 07:31:45;;;;;;;33.30;21.13;;;8.50;96.70;;;;;;5094454;27;20429;-92
2022/12/28 07:34:13;;;;;;;30.30;20.52;;;8.50;96.70;;;;;;5095450;27;20954;-91
2022/12/28 07:36:39;;;;;;;25.27;15.73;;;8.50;96.60;;;;;;5095166;27;20981;-90
2022/12/28 07:39:05;;;;;;;24.30;15.87;;;8.50;96.60;;;;;;5094659;27;20422;-93
2022/12/28 07:41:32;;;;;;;24.73;17.20;;;8.50;96.60;;;;;;5094949;27;20904;-92
2022/12/28 07:43:59;;;;;;;27.05;18.10;;;8.60;96.50;;;;;;5111182;27;20398;-90
2022/12/28 07:46:30;;;;;;;26.60;17.50;;;8.80;96.60;;;;;;5095953;27;20402;-90
2022/12/28 07:48:56;;;;;;;22.42;15.13;;;8.60;96.50;;;;;;5094232;27;20407;-90
2022/12/28 07:51:27;;;;;;;31.27;18.58;;;8.60;96.40;;;;;;5094840;27;20933;-90
2022/12/28 07:53:54;;;;;;;25.38;17.05;;;8.60;96.40;;;;;;5095026;27;20407;-90
2022/12/28 07:56:21;;;;;;;21.45;13.63;;;8.60;96.40;;;;;;5092589;27;20399;-89
2022/12/28 07:58:53;;;;;;;21.70;14.95;;;8.60;96.40;;;;;;5094702;27;20806;-87
2022/12/28 08:01:20;;;;;;;22.43;15.50;;;8.60;96.30;;;;;;5093343;27;20425;-91
2022/12/28 08:03:47;;;;;;;25.63;16.40;;;8.60;96.30;;;;;;5112214;27;20407;-89
2022/12/28 08:06:17;;;;;;;24.17;15.82;;;8.60;96.30;;;;;;5093911;27;20406;-90
2022/12/28 08:08:45;;;;;;;31.30;19.50;;;8.60;96.40;;;;;;5095207;27;20406;-90
2022/12/28 08:11:20;;;;;;;33.28;19.45;;;8.60;96.50;;;;;;5111890;27;20756;-91
2022/12/28 08:13:48;;;;;;;36.55;21.08;;;8.60;96.50;;;;;;5104831;27;20402;-91
2022/12/28 08:16:17;;;;;;;27.23;17.98;;;8.60;96.50;;;;;;5112175;27;20849;-91
2022/12/28 08:18:43;;;;;;;27.52;17.88;;;8.60;96.50;;;;;;5110358;27;20426;-91
2022/12/28 08:21:21;;;;;;;26.67;17.90;;;8.90;96.60;;;;;;5095697;27;20958;-89
2022/12/28 08:23:47;;;;;;;26.63;18.70;;;8.60;96.50;;;;;;5111551;27;20474;-90
2022/12/28 08:26:23;;;;;;;26.33;18.17;;;8.60;96.50;;;;;;5094548;27;20448;-89
2022/12/28 08:28:51;;;;;;;26.95;18.25;;;8.60;96.60;;;;;;5094101;27;20453;-90
2022/12/28 08:31:22;;;;;;;30.13;19.92;;;8.60;96.60;;;;;;5111095;27;20391;-91
2022/12/28 08:33:48;;;;;;;27.70;19.37;;;8.60;96.60;;;;;;5094646;27;20417;-90
2022/12/28 08:36:14;;;;;;;28.33;19.67;;;8.60;96.60;;;;;;5093607;27;20411;-92
2022/12/28 08:38:41;;;;;;;27.58;18.35;;;8.60;96.50;;;;;;5119665;27;20420;-92
2022/12/28 08:41:12;;;;;;;26.05;18.10;;;8.60;96.50;;;;;;5131102;27;20393;-94
2022/12/28 08:43:37;;;;;;;25.10;18.20;;;8.70;96.60;;;;;;5106552;27;20409;-93
2022/12/28 08:46:06;;;;;;;33.33;19.63;;;8.60;96.50;;;;;;5097032;27;21014;-92
2022/12/28 08:48:33;;;;;;;25.65;16.98;;;8.60;96.50;;;;;;5108253;27;20408;-95
2022/12/28 08:51:04;;;;;;;27.45;16.33;;;8.80;96.50;;;;;;5114980;27;20389;-91
2022/12/28 08:53:30;;;;;;;17.98;12.68;;;8.60;96.50;;;;;;5113895;27;20460;-90
2022/12/28 08:56:03;;;;;;;14.18;10.38;;;8.80;96.50;;;;;;5132240;27;20883;-91
2022/12/28 08:58:28;;;;;;;13.32;9.15;;;8.70;96.50;;;;;;5113756;27;20908;-90
2022/12/28 09:00:54;;;;;;;11.45;8.35;;;8.70;96.50;;;;;;5113838;27;20401;-91
2022/12/28 09:03:20;;;;;;;8.67;6.63;;;8.80;96.50;;;;;;5130388;27;20914;-89
2022/12/28 09:05:45;;;;;;;9.97;7.30;;;8.80;96.50;;;;;;5130543;27;20488;-93
2022/12/28 09:08:11;;;;;;;9.40;6.63;;;8.80;96.60;;;;;;5113460;27;20413;-92
2022/12/28 09:10:36;;;;;;;10.67;7.33;;;8.80;96.60;;;;;;5113496;27;20950;-93
2022/12/28 09:13:02;;;;;;;12.33;7.70;;;8.80;96.60;;;;;;5108715;27;20408;-93
2022/12/28 09:15:28;;;;;;;10.70;7.57;;;9.00;96.60;;;;;;5102285;27;20963;-92
2022/12/28 09:17:53;;;;;;;9.13;6.70;;;8.80;96.50;;;;;;5102645;27;20463;-92
2022/12/28 09:20:19;;;;;;;10.90;8.03;;;8.90;96.60;;;;;;5124662;27;20989;-90
2022/12/28 09:22:44;;;;;;;9.40;7.40;;;8.90;96.60;;;;;;5113489;27;20414;-90
2022/12/28 09:25:10;;;;;;;8.93;7.17;;;8.90;96.50;;;;;;5113836;27;20412;-89
2022/12/28 09:27:36;;;;;;;10.17;7.80;;;9.00;96.40;;;;;;5129488;27;20408;-90
2022/12/28 09:30:02;;;;;;;10.13;8.43;;;9.00;96.30;;;;;;5113989;27;20393;-90
2022/12/28 09:32:27;;;;;;;12.75;9.80;;;8.90;96.30;;;;;;5129913;27;20401;-91
2022/12/28 09:34:53;;;;;;;14.60;10.40;;;9.00;96.20;;;;;;5113576;27;21214;-89
2022/12/28 09:37:19;;;;;;;13.77;10.43;;;9.00;96.30;;;;;;5130079;27;20405;-90
2022/12/28 09:39:44;;;;;;;14.07;11.70;;;9.00;96.30;;;;;;5130154;27;20389;-91
2022/12/28 09:42:22;;;;;;;11.45;10.00;;;9.00;96.20;;;;;;5130342;27;20408;-90
2022/12/28 09:44:52;;;;;;;12.43;9.75;;;9.10;96.20;;;;;;5112567;27;20432;-90
2022/12/28 09:47:37;;;;;;;11.77;10.00;;;9.10;96.10;;;;;;5113166;27;20496;-89
2022/12/28 09:50:16;;;;;;;11.25;9.57;;;9.10;96.20;;;;;;5129185;27;20412;-89
2022/12/28 09:53:05;;;;;;;11.35;9.50;;;9.00;96.20;;;;;;5130447;27;20413;-90
2022/12/28 09:55:37;;;;;;;14.25;9.77;;;9.10;96.30;;;;;;5113275;27;20402;-89
2022/12/28 09:58:08;;;;;;;10.73;8.20;;;9.10;96.30;;;;;;5111462;27;20425;-90
2022/12/28 10:00:43;;;;;;;9.98;7.97;;;9.20;96.10;;;;;;5095919;27;20833;-90
2022/12/28 10:03:19;;;;;;;12.25;8.15;;;9.10;96.00;;;;;;5091228;27;20410;-89
2022/12/28 10:05:45;;;;;;;9.93;7.43;;;9.10;96.10;;;;;;5108578;27;20776;-90
2022/12/28 10:08:17;;;;;;;12.80;8.82;;;9.00;96.00;;;;;;5109039;27;20422;-89
2022/12/28 10:10:43;;;;;;;9.43;6.93;;;9.00;96.10;;;;;;5090698;28;20901;-89
2022/12/28 10:13:24;;;;;;;11.60;8.02;;;9.20;96.10;;;;;;5091527;27;20943;-90
2022/12/28 10:15:51;;;;;;;10.60;7.40;;;9.00;96.20;;;;;;5088646;27;20411;-90
2022/12/28 10:18:24;;;;;;;10.88;7.05;;;9.00;96.10;;;;;;5108086;27;20484;-90
2022/12/28 10:20:50;;;;;;;11.20;7.23;;;9.20;96.20;;;;;;5108258;27;20404;-91
2022/12/28 10:23:21;;;;;;;10.05;7.63;;;8.90;96.10;;;;;;5130134;27;20405;-89
2022/12/28 10:25:48;;;;;;;13.88;9.98;;;8.90;96.10;;;;;;5112746;27;20408;-92
2022/12/28 10:28:16;;;;;;;16.02;10.82;;;8.90;96.10;;;;;;5111919;27;20411;-92
2022/12/28 10:31:00;;;;;;;19.07;13.03;;;8.80;96.20;;;;;;5130383;27;20970;-93
2022/12/28 10:33:26;;;;;;;25.48;14.80;;;8.70;96.30;;;;;;5125559;27;20410;-90
2022/12/28 10:35:54;;;;;;;25.10;14.55;;;8.90;96.40;;;;;;5109435;28;20418;-91
2022/12/28 10:38:30;;;;;;;23.93;13.83;;;8.80;96.50;;;;;;5108952;28;20433;-92
2022/12/28 10:41:08;;;;;;;26.73;15.02;;;8.90;96.50;;;;;;5108845;28;20413;-91
2022/12/28 10:43:38;;;;;;;23.07;15.67;;;9.10;96.60;;;;;;5107086;28;20452;-90
2022/12/28 10:46:13;;;;;;;31.80;17.75;;;8.90;96.60;;;;;;5108522;28;20406;-91
2022/12/28 10:48:45;;;;;;;32.08;18.95;;;8.90;96.70;;;;;;5109375;28;20466;-91
2022/12/28 10:51:15;;;;;;;37.40;21.03;;;9.00;96.80;;;;;;5109180;28;20452;-92
2022/12/28 10:53:46;;;;;;;37.90;21.48;;;9.00;96.80;;;;;;5108716;28;20982;-91
2022/12/28 10:56:12;;;;;;;33.05;21.00;;;9.00;96.80;;;;;;5109414;28;20402;-90
2022/12/28 10:58:43;;;;;;;38.07;22.40;;;9.10;96.90;;;;;;5125098;28;20471;-92
2022/12/28 11:01:29;;;;;;;30.33;19.83;;;9.20;96.90;;;;;;5109929;28;20453;-91
2022/12/28 11:03:54;;;;;;;34.38;21.67;;;9.30;96.90;;;;;;5108040;28;20802;-92
2022/12/28 11:06:23;;;;;;;32.50;21.65;;;9.20;96.90;;;;;;5122817;28;20461;-91
2022/12/28 11:09:21;;;;;;;28.80;20.25;;;9.20;96.80;;;;;;5126170;28;20417;-93
2022/12/28 11:11:51;;;;;;;28.08;20.10;;;9.30;96.80;;;;;;5063232;28;20471;-92
2022/12/28 11:14:29;;;;;;;23.70;18.23;;;9.30;96.70;;;;;;5110003;28;20399;-92
2022/12/28 11:16:55;;;;;;;24.85;18.55;;;9.30;96.70;;;;;;5124737;28;20739;-92
2022/12/28 11:19:22;;;;;;;22.23;16.08;;;9.20;96.60;;;;;;5108490;28;20509;-93
2022/12/28 11:21:48;;;;;;;23.63;16.83;;;9.30;96.60;;;;;;5116435;28;20415;-91
2022/12/28 11:24:15;;;;;;;20.75;14.70;;;9.30;96.60;;;;;;5087255;28;20408;-92
2022/12/28 11:26:48;;;;;;;22.20;15.52;;;9.30;96.60;;;;;;5105479;28;21019;-89
2022/12/28 11:29:16;;;;;;;21.52;14.50;;;9.30;96.60;;;;;;5104791;28;20512;-89
2022/12/28 11:32:11;;;;;;;18.67;14.18;;;9.30;96.60;;;;;;5090287;28;20400;-91
2022/12/28 11:34:37;;;;;;;17.10;13.48;;;9.30;96.50;;;;;;5091301;28;20477;-92
2022/12/28 11:37:03;;;;;;;15.52;12.85;;;9.30;96.40;;;;;;5091434;28;20406;-94
2022/12/28 11:39:31;;;;;;;16.07;12.83;;;9.30;96.40;;;;;;5091877;28;20420;-91
2022/12/28 11:41:59;;;;;;;16.13;12.98;;;9.10;96.30;;;;;;5090514;28;20404;-95
2022/12/28 11:44:33;;;;;;;12.95;11.55;;;9.30;96.40;;;;;;5092506;28;20782;-92
2022/12/28 11:47:31;;;;;;;17.08;14.07;;;9.20;96.40;;;;;;5090390;28;20949;-92
2022/12/28 11:50:33;;;;;;;13.18;11.10;;;9.40;96.50;;;;;;5102372;28;20408;-90
2022/12/28 11:53:00;;;;;;;15.98;12.60;;;9.40;96.80;;;;;;5076046;28;20451;-89
2022/12/28 11:55:25;;;;;;;14.60;11.98;;;9.40;96.40;;;;;;5090468;28;20434;-89
2022/12/28 11:57:53;;;;;;;16.20;12.30;;;9.30;96.40;;;;;;5091128;28;20440;-90
2022/12/28 12:00:22;;;;;;;11.87;10.53;;;9.40;96.50;;;;;;5090572;28;20936;-89
2022/12/28 12:03:06;;;;;;;13.18;11.25;;;9.40;96.40;;;;;;5110706;27;20452;-92
2022/12/28 12:05:38;;;;;;;11.00;9.75;;;9.30;96.40;;;;;;5088764;28;20408;-91
2022/12/28 12:08:15;;;;;;;13.40;11.57;;;9.40;96.40;;;;;;5090894;28;20455;-91
2022/12/28 12:10:45;;;;;;;13.60;12.10;;;9.40;96.40;;;;;;5091743;28;20783;-90
2022/12/28 12:13:26;;;;;;;14.43;12.85;;;9.40;96.30;;;;;;5107567;28;20408;-90
2022/12/28 12:15:58;;;;;;;14.10;12.60;;;9.40;96.40;;;;;;5091312;28;20404;-92
2022/12/28 12:18:27;;;;;;;14.68;13.15;;;9.40;96.30;;;;;;5091047;28;20467;-90
2022/12/28 12:21:03;;;;;;;19.10;15.65;;;9.40;96.30;;;;;;5107814;28;20397;-89
2022/12/28 12:23:41;;;;;;;13.18;11.75;;;9.40;96.40;;;;;;5107945;28;20432;-89
2022/12/28 12:26:42;;;;;;;17.30;14.55;;;9.30;96.30;;;;;;5106615;28;20408;-90
2022/12/28 12:29:16;;;;;;;13.88;12.38;;;9.40;96.40;;;;;;5089839;28;20503;-89
2022/12/28 12:31:47;;;;;;;17.23;14.48;;;9.30;96.30;;;;;;5107382;28;20475;-89
2022/12/28 12:34:41;;;;;;;15.15;12.98;;;9.30;96.30;;;;;;5106354;28;20836;-89
2022/12/28 12:37:27;;;;;;;17.02;13.75;;;9.30;96.30;;;;;;5101435;28;20786;-90
2022/12/28 12:40:08;;;;;;;10.67;9.57;;;9.30;96.30;;;;;;5090618;28;20508;-89
2022/12/28 12:43:20;;;;;;;13.25;11.88;;;9.30;96.30;;;;;;5090275;28;20412;-89
2022/12/28 12:46:17;;;;;;;11.07;9.98;;;9.20;96.30;;;;;;5106962;28;20872;-90
2022/12/28 12:49:09;;;;;;;12.15;10.85;;;9.20;96.30;;;;;;5107492;28;20416;-87
2022/12/28 12:51:59;;;;;;;12.60;10.65;;;9.30;96.30;;;;;;5081474;28;20419;-91
2022/12/28 12:54:43;;;;;;;11.43;9.73;;;9.30;96.30;;;;;;5094759;27;20490;-91
2022/12/28 12:57:19;;;;;;;7.57;6.75;;;9.30;96.30;;;;;;5112020;27;20416;-92
2022/12/28 13:00:02;;;;;;;7.67;6.97;;;9.20;96.30;;;;;;5107197;28;20481;-90
2022/12/28 13:02:39;;;;;;;9.43;8.43;;;9.20;96.30;;;;;;5089989;28;20412;-90
2022/12/28 13:05:12;;;;;;;10.27;9.13;;;9.10;96.30;;;;;;5089376;28;20442;-89
2022/12/28 13:07:39;;;;;;;11.43;9.80;;;9.20;96.30;;;;;;5090085;28;20393;-90
2022/12/28 13:10:08;;;;;;;9.85;8.63;;;9.20;96.40;;;;;;5107321;28;20407;-90
2022/12/28 13:12:35;;;;;;;8.50;7.13;;;9.20;96.40;;;;;;5106389;28;20400;-90
2022/12/28 13:15:03;;;;;;;8.90;8.00;;;9.20;96.30;;;;;;5090197;28;20400;-90
2022/12/28 13:17:29;;;;;;;9.35;8.30;;;9.10;96.20;;;;;;5088987;28;20725;-88
2022/12/28 13:20:18;;;;;;;8.13;6.87;;;9.20;96.20;;;;;;5090046;28;20420;-89
2022/12/28 13:22:46;;;;;;;9.35;8.45;;;9.30;96.30;;;;;;5089382;28;20440;-90
2022/12/28 13:25:32;;;;;;;9.43;8.43;;;9.20;96.20;;;;;;5088875;28;20408;-90
2022/12/28 13:28:02;;;;;;;9.73;8.73;;;9.20;96.20;;;;;;5106831;28;20883;-89